createdAt,value
2022-08-30T00:01:26.692Z,15.60
2022-08-30T00:03:55.152Z,15.70
2022-08-30T00:06:23.206Z,15.80
2022-08-30T00:08:51.682Z,15.80
2022-08-30T00:11:22.178Z,15.80
2022-08-30T00:13:52.277Z,15.80
2022-08-30T00:16:21.575Z,15.70
2022-08-30T00:18:48.844Z,15.60
2022-08-30T00:21:15.855Z,15.50
2022-08-30T00:23:42.976Z,15.50
2022-08-30T00:26:09.699Z,15.50
2022-08-30T00:28:37.329Z,15.60
2022-08-30T00:31:04.450Z,15.50
2022-08-30T00:33:31.661Z,15.50
2022-08-30T00:36:01.976Z,15.50
2022-08-30T00:38:28.682Z,15.40
2022-08-30T00:40:55.704Z,15.30
2022-08-30T00:43:29.995Z,15.40
2022-08-30T00:45:58.681Z,15.40
2022-08-30T00:48:34.098Z,15.30
2022-08-30T01:13:25.392Z,15.20
2022-08-30T01:15:53.613Z,14.80
2022-08-30T01:18:22.310Z,14.70
2022-08-30T01:20:52.587Z,14.70
2022-08-30T01:23:21.584Z,14.60
2022-08-30T01:25:50.534Z,14.50
2022-08-30T01:28:25.648Z,14.50
2022-08-30T01:30:53.237Z,14.60
2022-08-30T01:33:22.082Z,14.70
2022-08-30T01:35:53.903Z,14.70
2022-08-30T01:38:24.143Z,14.80
2022-08-30T01:40:56.478Z,14.90
2022-08-30T01:43:23.225Z,14.90
2022-08-30T01:45:50.140Z,14.80
2022-08-30T01:48:16.914Z,14.70
2022-08-30T01:50:44.104Z,14.70
2022-08-30T01:53:13.293Z,14.60
2022-08-30T01:55:40.544Z,14.50
2022-08-30T01:58:07.386Z,14.50
2022-08-30T02:00:34.171Z,14.50
2022-08-30T02:03:00.897Z,14.40
2022-08-30T02:12:49.547Z,14.30
2022-08-30T02:15:16.860Z,13.90
2022-08-30T02:17:46.817Z,13.80
2022-08-30T02:20:13.589Z,13.80
2022-08-30T02:22:40.404Z,13.80
2022-08-30T02:25:20.608Z,13.70
2022-08-30T02:27:48.591Z,13.70
2022-08-30T02:30:15.366Z,13.70
2022-08-30T02:32:42.106Z,13.80
2022-08-30T02:35:09.515Z,13.80
2022-08-30T02:37:36.657Z,13.80
2022-08-30T02:40:04.814Z,13.90
2022-08-30T02:42:31.682Z,13.90
2022-08-30T02:44:58.551Z,14.00
2022-08-30T02:47:28.343Z,14.00
2022-08-30T02:49:58.069Z,14.00
2022-08-30T02:52:27.661Z,13.90
2022-08-30T02:54:57.318Z,13.90
2022-08-30T02:57:29.373Z,13.90
2022-08-30T02:59:56.173Z,13.90
2022-08-30T03:02:25.924Z,13.90
2022-08-30T03:07:19.825Z,13.70
2022-08-30T03:12:16.836Z,13.60
2022-08-30T03:14:46.618Z,13.50
2022-08-30T03:17:16.814Z,13.50
2022-08-30T03:19:44.764Z,13.50
2022-08-30T03:22:12.135Z,13.50
2022-08-30T03:24:40.506Z,13.60
2022-08-30T03:27:10.338Z,13.60
2022-08-30T03:29:39.116Z,13.60
2022-08-30T03:32:13.428Z,13.60
2022-08-30T03:34:40.365Z,13.60
2022-08-30T03:37:07.157Z,13.60
2022-08-30T03:39:34.404Z,13.50
2022-08-30T03:42:01.451Z,13.50
2022-08-30T03:44:33.065Z,13.40
2022-08-30T03:47:04.218Z,13.40
2022-08-30T03:49:31.777Z,13.40
2022-08-30T03:51:58.551Z,13.40
2022-08-30T03:54:25.500Z,13.40
2022-08-30T03:56:52.357Z,13.40
2022-08-30T03:59:19.068Z,13.40
2022-08-30T04:06:47.962Z,13.30
2022-08-30T04:09:14.746Z,13.30
2022-08-30T04:11:41.457Z,13.30
2022-08-30T04:14:08.181Z,13.40
2022-08-30T04:16:35.066Z,13.40
2022-08-30T04:19:02.396Z,13.30
2022-08-30T04:21:43.074Z,13.30
2022-08-30T04:24:10.629Z,13.20
2022-08-30T04:26:37.510Z,13.20
2022-08-30T04:29:07.054Z,13.20
2022-08-30T04:31:34.066Z,13.10
2022-08-30T04:34:02.844Z,13.20
2022-08-30T04:36:29.933Z,13.20
2022-08-30T04:38:57.059Z,13.20
2022-08-30T04:41:24.587Z,13.20
2022-08-30T04:43:51.327Z,13.20
2022-08-30T04:46:19.288Z,13.30
2022-08-30T04:48:46.662Z,13.30
2022-08-30T04:51:16.741Z,13.30
2022-08-30T04:53:44.262Z,13.50
2022-08-30T04:56:25.171Z,13.40
2022-08-30T04:58:55.436Z,13.50
2022-08-30T05:01:29.411Z,13.50
2022-08-30T06:08:19.018Z,16.60
2022-08-30T06:10:45.921Z,17.20
2022-08-30T06:13:14.575Z,17.90
2022-08-30T06:18:11.871Z,18.70
2022-08-30T06:20:43.504Z,19.60
2022-08-30T06:38:23.916Z,20.00
2022-08-30T06:40:50.969Z,22.20
2022-08-30T06:43:17.830Z,22.60
2022-08-30T06:45:44.646Z,22.70
2022-08-30T06:48:11.361Z,22.50
2022-08-30T06:50:38.245Z,22.50
2022-08-30T06:53:06.110Z,22.40
2022-08-30T06:55:36.200Z,22.70
2022-08-30T06:58:10.231Z,23.00
2022-08-30T08:23:05.723Z,26.60
2022-08-30T08:25:33.036Z,26.50
2022-08-30T08:27:59.760Z,26.60
2022-08-30T08:30:26.518Z,26.50
2022-08-30T08:32:53.997Z,26.50
2022-08-30T08:35:20.891Z,26.60
2022-08-30T08:37:50.393Z,26.60
2022-08-30T08:40:19.642Z,26.70
2022-08-30T08:42:57.784Z,26.60
2022-08-30T08:45:43.617Z,26.50
2022-08-30T08:48:59.019Z,26.10
2022-08-30T08:51:49.139Z,26.30
2022-08-30T08:54:19.271Z,26.50
2022-08-30T08:56:46.083Z,26.40
2022-08-30T08:59:17.694Z,26.60
2022-08-30T09:01:44.767Z,26.70
2022-08-30T09:04:20.699Z,26.60
2022-08-30T09:22:33.771Z,26.90
2022-08-30T09:25:12.988Z,27.10
2022-08-30T09:27:42.549Z,27.00
2022-08-30T09:30:19.902Z,27.00
2022-08-30T09:32:54.605Z,27.50
2022-08-30T09:35:39.636Z,27.50
2022-08-30T09:38:32.591Z,27.70
2022-08-30T09:41:04.952Z,27.70
2022-08-30T09:43:34.010Z,27.80
2022-08-30T09:46:05.898Z,28.20
2022-08-30T09:51:10.298Z,28.60
2022-08-30T09:54:20.000Z,29.30
2022-08-30T09:57:12.859Z,29.30
2022-08-30T09:59:55.004Z,29.20
2022-08-30T10:02:58.716Z,29.10
2022-08-30T10:05:45.637Z,29.40
2022-08-30T10:08:30.803Z,28.70
2022-08-30T10:11:01.204Z,28.40
2022-08-30T10:13:48.203Z,28.30
2022-08-30T10:16:21.144Z,28.90
2022-08-30T10:19:02.778Z,29.20
2022-08-30T10:21:42.993Z,29.30
2022-08-30T10:24:21.051Z,29.70
2022-08-30T10:27:02.107Z,29.90
2022-08-30T10:29:33.911Z,30.20
2022-08-30T10:32:12.998Z,29.90
2022-08-30T10:34:46.249Z,29.90
2022-08-30T10:55:49.395Z,30.10
2022-08-30T10:58:20.528Z,30.90
2022-08-30T11:00:59.564Z,31.40
2022-08-30T11:03:36.643Z,31.50
2022-08-30T11:06:06.566Z,31.20
2022-08-30T11:09:04.969Z,31.40
2022-08-30T11:11:37.781Z,31.60
2022-08-30T11:14:09.986Z,31.30
2022-08-30T11:16:43.299Z,31.10
2022-08-30T11:19:40.849Z,31.20
2022-08-30T11:22:24.719Z,31.20
2022-08-30T11:25:00.562Z,31.60
2022-08-30T11:27:43.684Z,32.00
2022-08-30T11:30:26.482Z,32.10
2022-08-30T11:33:02.010Z,31.60
2022-08-30T11:36:07.771Z,31.20
2022-08-30T11:38:34.483Z,31.00
2022-08-30T11:41:14.396Z,31.10
2022-08-30T11:43:44.102Z,30.90
2022-08-30T11:46:17.791Z,31.30
2022-08-30T11:49:05.430Z,31.80
2022-08-30T11:52:26.491Z,32.30
2022-08-30T11:55:20.244Z,32.40
2022-08-30T11:58:07.656Z,32.50
2022-08-30T12:00:41.324Z,32.60
2022-08-30T12:03:29.244Z,32.50
2022-08-30T12:06:07.939Z,32.40
2022-08-30T12:08:41.658Z,32.00
2022-08-30T12:11:11.906Z,32.10
2022-08-30T12:13:44.705Z,32.50
2022-08-30T12:16:20.407Z,32.70
2022-08-30T12:19:20.642Z,33.10
2022-08-30T12:22:04.273Z,32.90
2022-08-30T12:24:53.061Z,32.60
2022-08-30T12:27:36.088Z,32.60
2022-08-30T12:30:08.350Z,32.20
2022-08-30T12:32:47.701Z,32.50
2022-08-30T12:35:28.211Z,32.80
2022-08-30T12:38:07.167Z,32.90
2022-08-30T12:40:35.108Z,33.00
2022-08-30T12:43:18.598Z,32.40
2022-08-30T12:45:51.345Z,32.80
2022-08-30T12:48:19.990Z,32.90
2022-08-30T12:50:54.370Z,33.00
2022-08-30T12:53:29.483Z,33.30
2022-08-30T12:56:02.491Z,33.40
2022-08-30T12:58:39.089Z,33.70
2022-08-30T13:01:33.330Z,33.80
2022-08-30T13:04:17.815Z,34.20
2022-08-30T13:06:50.622Z,34.50
2022-08-30T13:09:32.537Z,34.40
2022-08-30T13:12:01.650Z,34.90
2022-08-30T13:14:43.631Z,34.80
2022-08-30T13:17:10.595Z,34.10
2022-08-30T13:19:43.398Z,35.00
2022-08-30T13:22:30.230Z,35.20
2022-08-30T13:24:58.294Z,35.30
2022-08-30T13:27:26.493Z,35.00
2022-08-30T13:29:54.622Z,34.60
2022-08-30T13:32:23.220Z,34.70
2022-08-30T13:34:50.530Z,35.20
2022-08-30T13:40:13.606Z,34.40
2022-08-30T13:42:42.807Z,34.50
2022-08-30T13:47:58.084Z,35.80
2022-08-30T13:50:28.095Z,36.30
2022-08-30T13:52:57.851Z,36.50
2022-08-30T13:55:27.216Z,36.60
2022-08-30T13:57:58.056Z,36.70
2022-08-30T14:00:26.711Z,35.70
2022-08-30T14:02:59.766Z,35.20
2022-08-30T14:05:50.713Z,35.10
2022-08-30T14:11:18.639Z,34.80
2022-08-30T14:16:35.621Z,34.60
2022-08-30T14:19:05.719Z,35.40
2022-08-30T14:21:32.766Z,35.90
2022-08-30T14:24:04.824Z,35.90
2022-08-30T14:26:37.820Z,36.20
2022-08-30T14:29:10.041Z,37.00
2022-08-30T14:31:38.874Z,37.90
2022-08-30T14:34:06.961Z,37.60
2022-08-30T14:36:36.212Z,37.30
2022-08-30T14:39:08.299Z,37.30
2022-08-30T14:41:43.380Z,37.20
2022-08-30T14:44:11.643Z,36.90
2022-08-30T14:46:38.439Z,35.80
2022-08-30T14:49:07.211Z,35.50
2022-08-30T14:51:40.535Z,35.30
2022-08-30T14:54:07.944Z,35.20
2022-08-30T14:56:34.802Z,35.70
2022-08-30T14:59:02.963Z,35.20
2022-08-30T15:01:31.392Z,35.30
2022-08-30T15:03:59.276Z,35.90
2022-08-30T15:06:27.768Z,36.60
2022-08-30T15:08:55.348Z,36.80
2022-08-30T15:11:26.386Z,37.00
2022-08-30T15:13:54.324Z,36.50
2022-08-30T15:16:25.157Z,36.40
2022-08-30T15:18:55.229Z,35.90
2022-08-30T15:21:26.867Z,34.70
2022-08-30T15:23:55.972Z,33.60
2022-08-30T15:26:23.672Z,32.40
2022-08-30T15:28:51.611Z,32.90
2022-08-30T15:31:28.442Z,33.70
2022-08-30T15:33:55.799Z,34.30
2022-08-30T15:36:24.231Z,35.00
2022-08-30T15:38:52.890Z,35.50
2022-08-30T15:41:19.624Z,34.80
2022-08-30T15:43:48.848Z,34.10
2022-08-30T15:46:34.428Z,33.20
2022-08-30T15:49:20.509Z,32.60
2022-08-30T15:51:51.552Z,32.50
2022-08-30T15:54:22.822Z,33.20
2022-08-30T15:56:52.367Z,33.80
2022-08-30T15:59:19.587Z,34.00
2022-08-30T16:01:47.838Z,33.30
2022-08-30T16:04:17.106Z,32.20
2022-08-30T16:06:46.563Z,31.50
2022-08-30T16:09:13.864Z,30.60
2022-08-30T16:11:40.882Z,30.10
2022-08-30T16:14:08.126Z,29.70
2022-08-30T16:16:37.640Z,29.30
2022-08-30T16:19:07.179Z,29.10
2022-08-30T16:21:36.803Z,29.10
2022-08-30T16:24:05.596Z,29.10
2022-08-30T16:26:39.336Z,29.10
2022-08-30T16:29:07.835Z,29.30
2022-08-30T16:31:36.955Z,29.40
2022-08-30T16:34:04.386Z,29.60
2022-08-30T16:36:32.740Z,29.60
2022-08-30T16:39:01.867Z,29.60
2022-08-30T16:41:32.422Z,29.60
2022-08-30T16:43:59.688Z,29.40
2022-08-30T16:46:27.376Z,29.10
2022-08-30T16:48:57.019Z,29.00
2022-08-30T16:51:27.197Z,28.80
2022-08-30T16:53:58.541Z,28.70
2022-08-30T16:56:27.498Z,28.50
2022-08-30T16:59:01.394Z,28.30
2022-08-30T17:01:30.858Z,28.00
2022-08-30T17:03:57.681Z,27.80
2022-08-30T17:06:27.374Z,27.60
2022-08-30T17:08:56.384Z,27.50
2022-08-30T17:11:24.448Z,27.30
2022-08-30T17:13:51.494Z,27.20
2022-08-30T17:16:22.762Z,27.10
2022-08-30T17:18:55.707Z,26.90
2022-08-30T17:21:23.255Z,26.70
2022-08-30T17:23:50.154Z,26.60
2022-08-30T17:26:18.386Z,26.50
2022-08-30T17:28:48.254Z,26.50
2022-08-30T17:31:15.050Z,26.40
2022-08-30T17:33:43.083Z,26.40
2022-08-30T17:36:12.501Z,26.20
2022-08-30T17:38:40.067Z,26.00
2022-08-30T17:41:12.221Z,25.90
2022-08-30T17:43:45.134Z,25.70
2022-08-30T17:46:20.953Z,25.60
2022-08-30T17:48:48.050Z,25.50
2022-08-30T17:51:29.275Z,25.40
2022-08-30T17:53:58.432Z,25.20
2022-08-30T17:56:34.147Z,25.00
2022-08-30T17:59:04.775Z,24.80
2022-08-30T18:01:31.794Z,24.60
2022-08-30T18:04:02.097Z,24.50
2022-08-30T18:06:33.338Z,24.40
2022-08-30T18:09:01.891Z,24.20
2022-08-30T18:11:28.652Z,24.10
2022-08-30T18:13:55.629Z,23.90
2022-08-30T18:16:26.310Z,23.90
2022-08-30T18:18:57.342Z,23.90
2022-08-30T18:21:25.191Z,23.80
2022-08-30T18:23:52.474Z,23.70
2022-08-30T18:26:22.208Z,23.60
2022-08-30T18:28:51.627Z,23.60
2022-08-30T18:31:18.433Z,23.50
2022-08-30T18:33:45.745Z,23.50
2022-08-30T18:36:12.702Z,23.40
2022-08-30T18:38:42.605Z,23.30
2022-08-30T18:41:15.313Z,23.20
2022-08-30T18:43:43.138Z,23.10
2022-08-30T18:46:14.753Z,23.00
2022-08-30T18:48:42.150Z,22.80
2022-08-30T18:51:21.999Z,22.70
2022-08-30T18:53:49.471Z,22.60
2022-08-30T18:56:16.777Z,22.50
2022-08-30T18:58:45.032Z,22.40
2022-08-30T19:01:12.937Z,22.40
2022-08-30T19:03:41.876Z,22.30
2022-08-30T19:06:11.435Z,22.30
2022-08-30T19:08:40.130Z,22.20
2022-08-30T19:11:08.762Z,22.10
2022-08-30T19:13:37.066Z,22.10
2022-08-30T19:16:05.962Z,22.10
2022-08-30T19:18:34.385Z,22.20
2022-08-30T19:21:03.681Z,22.10
2022-08-30T19:23:34.392Z,22.10
2022-08-30T19:26:01.405Z,22.00
2022-08-30T19:28:28.435Z,21.90
2022-08-30T19:30:57.907Z,21.90
2022-08-30T19:33:24.728Z,21.90
2022-08-30T19:35:51.695Z,21.90
2022-08-30T19:38:19.660Z,22.00
2022-08-30T19:40:54.430Z,22.00
2022-08-30T19:43:21.520Z,22.00
2022-08-30T19:45:56.121Z,21.90
2022-08-30T19:48:24.549Z,21.90
2022-08-30T19:50:59.129Z,21.80
2022-08-30T19:53:25.901Z,21.70
2022-08-30T19:55:52.628Z,21.70
2022-08-30T19:58:19.314Z,21.80
2022-08-30T20:00:55.963Z,21.70
2022-08-30T20:03:33.529Z,21.70
2022-08-30T20:06:00.299Z,21.60
2022-08-30T20:08:27.856Z,21.60
2022-08-30T20:10:54.746Z,21.60
2022-08-30T20:13:24.067Z,21.60
2022-08-30T20:15:58.420Z,21.50
2022-08-30T20:18:26.215Z,21.50
2022-08-30T20:20:53.436Z,21.50
2022-08-30T20:23:24.157Z,21.40
2022-08-30T20:25:54.301Z,21.40
2022-08-30T20:28:21.757Z,21.40
2022-08-30T20:30:48.897Z,21.30
2022-08-30T20:33:16.664Z,21.30
2022-08-30T20:35:48.796Z,21.30
2022-08-30T20:38:21.333Z,21.30
2022-08-30T20:40:54.079Z,21.30
2022-08-30T20:43:26.340Z,21.40
2022-08-30T20:45:55.076Z,21.40
2022-08-30T20:48:22.842Z,21.40
2022-08-30T20:50:49.832Z,21.30
2022-08-30T20:53:16.659Z,21.20
2022-08-30T20:55:45.150Z,21.20
2022-08-30T20:58:12.617Z,21.10
2022-08-30T21:00:39.480Z,21.10
2022-08-30T21:03:26.279Z,21.00
2022-08-30T21:05:54.378Z,21.00
2022-08-30T21:08:21.438Z,21.00
2022-08-30T21:10:48.119Z,21.10
2022-08-30T21:13:14.887Z,21.10
2022-08-30T21:15:45.732Z,21.00
2022-08-30T21:18:16.902Z,21.00
2022-08-30T21:20:46.963Z,21.00
2022-08-30T21:23:17.133Z,21.00
2022-08-30T21:25:44.125Z,21.00
2022-08-30T21:28:12.872Z,21.00
2022-08-30T21:30:39.674Z,21.00
2022-08-30T21:33:07.730Z,21.00
2022-08-30T21:35:54.661Z,21.00
2022-08-30T21:38:21.777Z,21.00
2022-08-30T21:40:51.463Z,20.90
2022-08-30T21:43:18.277Z,20.90
2022-08-30T21:45:45.602Z,20.90
2022-08-30T21:48:15.423Z,20.80
2022-08-30T21:50:43.059Z,20.90
2022-08-30T21:53:10.529Z,20.80
2022-08-30T21:55:37.432Z,20.70
2022-08-30T21:58:04.675Z,20.70
2022-08-30T22:00:33.517Z,20.70
2022-08-30T22:03:00.658Z,20.60
2022-08-30T22:05:27.685Z,20.60
2022-08-30T22:07:54.421Z,20.50
2022-08-30T22:10:21.366Z,20.40
2022-08-30T22:12:48.176Z,20.40
2022-08-30T22:15:15.009Z,20.40
2022-08-30T22:17:43.369Z,20.30
2022-08-30T22:20:10.697Z,20.30
2022-08-30T22:22:42.659Z,20.20
2022-08-30T22:25:09.764Z,20.20
2022-08-30T22:27:36.815Z,20.20
2022-08-30T22:30:04.251Z,20.20
2022-08-30T22:32:30.974Z,20.10
2022-08-30T22:34:58.323Z,20.10
2022-08-30T22:37:32.106Z,20.10
2022-08-30T22:39:58.837Z,20.00
2022-08-30T22:42:25.648Z,20.00
2022-08-30T22:44:52.381Z,20.00
2022-08-30T22:47:19.088Z,19.90
2022-08-30T22:49:45.791Z,19.90
2022-08-30T22:52:14.325Z,20.00
2022-08-30T22:54:41.020Z,20.10
2022-08-30T22:57:07.902Z,20.00
2022-08-30T22:59:35.472Z,20.00
2022-08-30T23:02:02.564Z,20.10
2022-08-30T23:04:30.195Z,20.10
2022-08-30T23:06:56.877Z,20.10
2022-08-30T23:09:23.582Z,20.00
2022-08-30T23:11:50.270Z,20.00
2022-08-30T23:14:19.034Z,20.00
2022-08-30T23:16:51.790Z,20.00
2022-08-30T23:19:18.575Z,19.90
2022-08-30T23:21:45.411Z,19.90
2022-08-30T23:24:30.714Z,19.90
2022-08-30T23:27:16.146Z,19.70
2022-08-30T23:30:01.642Z,19.70
2022-08-30T23:32:46.948Z,19.60
2022-08-30T23:35:32.465Z,19.70
2022-08-30T23:38:21.498Z,19.70
2022-08-30T23:41:06.812Z,19.70
2022-08-30T23:43:52.403Z,19.70
2022-08-30T23:46:39.251Z,19.60
2022-08-30T23:49:24.691Z,19.60
2022-08-30T23:52:10.239Z,19.60
2022-08-30T23:54:57.646Z,19.60
2022-08-30T23:57:44.157Z,19.60
